Time;durP1;ratioP1;P1;durP2;ratioP2;P2;SDS_P1;SDS_P2;PMS_P1;PMS_P2;Temp;Humidity;BMP_temperature;BMP_pressure;BME280_temperature;BME280_humidity;BME280_pressure;Samples;Min_cycle;Max_cycle;Signal;HPM_P1;HPM_P2
2022/10/15 00:01:12;;;;;;;8.30;6.65;;;15.80;59.40;;;15.04;58.54;100570.72;12260078;19;20011;-83
2022/10/15 00:05:14;;;;;;;9.02;6.93;;;15.90;59.60;;;15.06;58.74;100563.56;12260717;19;20014;-83
2022/10/15 00:09:16;;;;;;;10.65;7.85;;;15.90;59.40;;;15.05;58.61;100543.47;12258220;19;20084;-83
2022/10/15 00:13:18;;;;;;;9.60;7.75;;;16.00;59.60;;;15.11;58.77;100547.44;12263675;19;20010;-83
2022/10/15 00:17:19;;;;;;;7.03;6.35;;;16.00;59.80;;;15.23;58.76;100549.94;12268196;19;20045;-82
2022/10/15 00:21:22;;;;;;;7.38;6.43;;;16.20;60.10;;;15.25;58.84;100541.91;12268465;19;20010;-83
2022/10/15 00:25:24;;;;;;;7.43;6.57;;;16.10;59.90;;;15.31;58.94;100536.22;12268024;19;20062;-83
2022/10/15 00:29:25;;;;;;;8.35;6.78;;;16.20;59.90;;;15.30;58.99;100521.34;12261675;19;20053;-84
2022/10/15 00:33:29;;;;;;;8.35;6.90;;;16.30;60.00;;;15.31;58.94;100515.16;12268203;19;20010;-82
2022/10/15 00:37:31;;;;;;;8.10;6.53;;;16.30;60.10;;;15.42;58.95;100516.94;12261242;19;20007;-83
2022/10/15 00:41:40;;;;;;;8.40;6.63;;;16.30;60.30;;;15.41;59.20;100507.34;12267471;19;20382;-82
2022/10/15 00:45:42;;;;;;;7.05;5.70;;;16.40;60.70;;;15.37;59.19;100496.25;12265191;19;20014;-82
2022/10/15 00:50:09;;;;;;;8.75;6.95;;;16.30;60.30;;;15.47;59.13;100506.88;12262206;19;20002;-84
2022/10/15 00:54:13;;;;;;;8.95;6.68;;;16.30;60.50;;;15.48;59.15;100505.94;12263245;19;20006;-83
2022/10/15 00:58:20;;;;;;;6.80;6.03;;;16.60;61.10;;;15.53;59.19;100508.16;12261654;19;20047;-84
2022/10/15 01:02:22;;;;;;;6.90;6.15;;;16.40;61.00;;;15.51;59.32;100499.59;12265894;19;20010;-83
2022/10/15 01:06:25;;;;;;;8.38;6.50;;;16.50;61.00;;;15.55;59.33;100491.31;12260855;19;20032;-84
2022/10/15 01:10:58;;;;;;;7.43;6.55;;;16.50;61.50;;;15.60;59.49;100493.56;12264360;19;20011;-83
2022/10/15 01:15:24;;;;;;;5.72;5.00;;;16.70;61.80;;;15.63;59.38;100493.31;12256560;19;20081;-82
2022/10/15 01:19:59;;;;;;;6.30;5.18;;;16.50;61.50;;;15.64;59.43;100476.59;12258461;19;20074;-83
2022/10/15 01:24:58;;;;;;;8.43;5.75;;;16.50;61.60;;;15.66;59.40;100474.66;12259545;19;20021;-83
2022/10/15 01:29:43;;;;;;;5.65;4.97;;;16.60;62.50;;;15.68;59.44;100472.72;12258341;19;20021;-83
2022/10/15 01:34:03;;;;;;;7.30;5.70;;;16.60;61.90;;;15.65;59.58;100459.81;12261495;19;21522;-82
2022/10/15 01:38:17;;;;;;;8.23;5.15;;;16.60;61.90;;;15.74;59.76;100472.25;12260680;19;20043;-84
2022/10/15 01:42:30;;;;;;;5.85;5.25;;;16.60;62.10;;;15.75;59.57;100460.78;12279084;19;20039;-84
2022/10/15 01:46:53;;;;;;;6.47;5.80;;;16.70;61.90;;;15.79;59.84;100453.47;12285896;19;20010;-84
2022/10/15 01:51:05;;;;;;;6.75;5.60;;;16.70;61.90;;;15.67;59.64;100431.59;12293117;19;20539;-84
2022/10/15 01:55:13;;;;;;;6.93;5.85;;;16.70;62.20;;;15.52;59.60;100401.25;12287539;19;20002;-84
2022/10/15 01:59:20;;;;;;;6.03;5.40;;;16.80;62.20;;;15.82;59.66;100440.06;12279924;19;20022;-84
2022/10/15 02:03:22;;;;;;;6.93;5.10;;;16.70;62.00;;;15.90;59.56;100438.47;12287287;19;20031;-83
2022/10/15 02:07:50;;;;;;;6.47;5.70;;;16.80;61.80;;;15.81;59.80;100430.50;12285940;19;20006;-84
2022/10/15 02:12:11;;;;;;;6.20;5.28;;;16.80;61.90;;;15.83;59.99;100432.03;12285172;19;20014;-83
2022/10/15 02:16:24;;;;;;;7.07;5.72;;;16.80;61.70;;;15.86;59.66;100431.78;12284392;19;20018;-83
2022/10/15 02:20:47;;;;;;;10.00;6.00;;;16.80;61.70;;;15.93;59.77;100429.47;12286003;19;20007;-84
2022/10/15 02:25:05;;;;;;;8.63;6.03;;;16.80;62.00;;;15.89;60.01;100409.63;12284225;19;20021;-84
2022/10/15 02:29:12;;;;;;;8.60;5.80;;;16.80;61.90;;;15.87;59.80;100408.91;12281495;19;20035;-84
2022/10/15 02:33:17;;;;;;;7.43;6.28;;;16.80;61.60;;;15.97;60.06;100423.00;12285642;19;20014;-84
2022/10/15 02:37:24;;;;;;;6.43;5.45;;;16.80;61.40;;;15.90;59.98;100411.28;12284140;19;20010;-84
2022/10/15 02:41:28;;;;;;;6.57;5.85;;;16.80;61.50;;;15.92;60.07;100415.47;12286201;19;20043;-84
2022/10/15 02:45:31;;;;;;;6.80;5.78;;;16.80;61.70;;;15.90;59.93;100401.63;12281052;19;20504;-84
2022/10/15 02:49:33;;;;;;;6.63;5.30;;;16.90;61.80;;;15.99;59.98;100410.53;12280052;19;20014;-83
2022/10/15 02:53:37;;;;;;;5.70;5.15;;;16.90;61.80;;;15.99;60.07;100402.63;12273873;19;20472;-83
2022/10/15 02:57:40;;;;;;;5.85;5.00;;;16.90;61.60;;;16.06;60.04;100416.13;12271630;19;20011;-83
2022/10/15 03:01:42;;;;;;;7.50;5.75;;;16.90;61.70;;;16.08;60.22;100420.31;12272902;19;20493;-83
2022/10/15 03:05:44;;;;;;;6.13;5.53;;;17.00;61.70;;;15.76;60.11;100359.78;12272410;19;20378;-82
2022/10/15 03:09:47;;;;;;;8.82;6.25;;;17.00;62.40;;;16.08;60.06;100398.41;12268634;19;20400;-83
2022/10/15 03:13:50;;;;;;;6.25;5.38;;;17.00;62.10;;;15.98;60.01;100381.69;12269899;19;20010;-84
2022/10/15 03:17:52;;;;;;;7.97;5.35;;;17.00;62.00;;;16.13;60.07;100402.31;12263357;19;20025;-82
2022/10/15 03:21:54;;;;;;;6.53;5.60;;;17.00;61.90;;;15.92;59.98;100357.53;12264153;19;20491;-82
2022/10/15 03:25:58;;;;;;;6.18;5.30;;;17.00;61.90;;;16.02;60.17;100377.84;12262196;19;20435;-82
2022/10/15 03:30:00;;;;;;;5.70;5.10;;;17.00;61.90;;;16.09;60.04;100384.25;12258238;19;20014;-82
2022/10/15 03:34:05;;;;;;;5.97;4.67;;;17.10;61.90;;;16.12;60.23;100395.38;12259983;19;20003;-82
2022/10/15 03:38:08;;;;;;;7.68;5.72;;;17.00;61.60;;;16.10;60.38;100378.03;12259315;19;20025;-82
2022/10/15 03:42:09;;;;;;;7.05;6.10;;;17.00;61.80;;;16.19;60.26;100385.16;12260054;19;20508;-83
2022/10/15 03:46:19;;;;;;;6.50;5.32;;;17.00;62.10;;;16.08;60.17;100366.78;12261244;19;20026;-82
2022/10/15 03:50:23;;;;;;;6.57;5.40;;;17.00;62.00;;;16.15;60.17;100367.94;12264355;19;20085;-83
2022/10/15 03:54:25;;;;;;;5.35;4.78;;;17.10;61.90;;;16.17;60.29;100381.81;12270609;19;20097;-83
2022/10/15 03:58:27;;;;;;;6.38;5.38;;;17.10;61.80;;;16.08;60.31;100366.78;12274267;19;20082;-83
2022/10/15 04:02:33;;;;;;;7.13;5.30;;;17.30;61.80;;;16.08;60.24;100367.63;12272193;19;20019;-83
2022/10/15 04:06:35;;;;;;;7.50;5.47;;;17.10;61.70;;;16.14;60.32;100376.81;12266790;19;20014;-82
2022/10/15 04:10:41;;;;;;;5.65;4.95;;;17.10;61.70;;;16.05;60.47;100361.78;12267159;19;20472;-83
2022/10/15 04:14:44;;;;;;;7.55;5.55;;;17.10;61.60;;;15.98;60.33;100345.66;12265400;19;20021;-83
2022/10/15 04:18:45;;;;;;;7.88;5.18;;;17.20;61.80;;;16.18;60.51;100380.88;12263595;19;20014;-82
2022/10/15 04:22:47;;;;;;;6.78;5.22;;;17.10;61.60;;;16.09;60.32;100374.56;12265995;19;20007;-83
2022/10/15 04:26:50;;;;;;;8.70;5.55;;;17.10;62.50;;;16.18;60.38;100391.41;12262121;19;20018;-82
2022/10/15 04:30:55;;;;;;;6.45;5.32;;;17.00;62.00;;;16.14;60.57;100382.06;12262584;19;20093;-83
2022/10/15 04:34:57;;;;;;;5.82;5.22;;;17.00;61.90;;;15.85;60.45;100332.69;12261244;19;20439;-82
2022/10/15 04:39:14;;;;;;;6.70;5.55;;;17.20;62.20;;;16.18;60.45;100385.31;12256114;19;20033;-83
2022/10/15 04:43:18;;;;;;;5.28;4.53;;;17.00;62.30;;;15.68;60.33;100299.84;12260185;19;20053;-82
2022/10/15 04:47:20;;;;;;;5.85;4.53;;;17.10;62.30;;;16.20;60.54;100386.81;12255129;19;20003;-83
2022/10/15 04:51:27;;;;;;;5.80;4.63;;;17.00;62.00;;;16.11;60.48;100372.63;12258541;19;20453;-83
2022/10/15 04:56:14;;;;;;;5.75;4.57;;;17.10;62.00;;;16.07;60.36;100368.59;12259414;19;20011;-85
2022/10/15 05:00:15;;;;;;;6.95;4.82;;;17.10;61.80;;;16.21;60.55;100393.78;12244526;19;20015;-85
2022/10/15 05:04:35;;;;;;;5.38;4.25;;;17.10;62.00;;;16.20;60.67;100397.34;12246999;19;20011;-84
2022/10/15 05:08:42;;;;;;;6.22;5.03;;;17.00;61.60;;;15.98;60.31;100366.72;12245722;19;20015;-84
2022/10/15 05:12:53;;;;;;;5.30;4.75;;;17.00;61.50;;;16.16;60.54;100385.41;12248336;19;20019;-84
2022/10/15 05:17:02;;;;;;;5.15;4.65;;;17.00;61.40;;;15.96;60.47;100360.75;12243311;19;20070;-84
2022/10/15 05:21:09;;;;;;;5.28;4.78;;;17.00;61.20;;;16.11;60.38;100379.69;12246704;19;20086;-84
2022/10/15 05:25:11;;;;;;;6.38;5.47;;;17.20;61.40;;;16.11;60.46;100383.16;12247297;19;20066;-84
2022/10/15 05:29:13;;;;;;;32.20;18.45;;;17.00;61.20;;;16.15;60.33;100389.03;12242334;19;20027;-85
2022/10/15 05:33:15;;;;;;;26.17;15.75;;;17.00;61.00;;;16.16;60.42;100390.69;12244832;19;20115;-85
2022/10/15 05:37:17;;;;;;;16.42;10.25;;;17.00;61.10;;;15.79;60.54;100335.00;12246616;19;20142;-84
2022/10/15 05:41:19;;;;;;;8.90;6.78;;;17.30;61.30;;;16.08;60.27;100398.41;12245356;19;20021;-85
2022/10/15 05:45:21;;;;;;;6.38;5.68;;;17.00;60.90;;;16.04;60.51;100404.88;12246393;19;20372;-84
2022/10/15 05:49:23;;;;;;;7.10;5.10;;;16.90;60.60;;;15.84;60.64;100378.41;12241162;19;20014;-85
2022/10/15 05:53:32;;;;;;;9.05;5.05;;;16.90;60.30;;;16.00;60.48;100411.38;12246988;19;20464;-84
2022/10/15 05:57:41;;;;;;;7.55;5.88;;;16.90;60.20;;;16.00;60.65;100417.47;12244282;19;20405;-85
2022/10/15 06:01:42;;;;;;;7.00;5.80;;;16.90;60.50;;;15.98;60.48;100414.13;12259907;19;20536;-84
2022/10/15 06:05:44;;;;;;;6.45;5.50;;;16.90;60.70;;;15.92;60.52;100412.84;12251225;19;20039;-86
2022/10/15 06:09:46;;;;;;;7.35;6.38;;;16.90;60.80;;;15.90;60.62;100409.50;12248052;19;20553;-84
2022/10/15 06:13:48;;;;;;;9.10;7.85;;;16.80;60.90;;;16.00;60.42;100421.91;12250695;19;20047;-85
2022/10/15 06:17:53;;;;;;;9.73;8.07;;;16.90;61.20;;;15.97;60.52;100433.53;12252310;19;20006;-84
2022/10/15 06:21:54;;;;;;;7.00;5.70;;;17.00;61.60;;;16.03;60.43;100438.28;12251665;19;20021;-84
2022/10/15 06:26:01;;;;;;;6.30;5.68;;;16.90;61.60;;;16.01;60.60;100436.75;12254666;19;20035;-86
2022/10/15 06:30:03;;;;;;;9.38;6.85;;;16.80;61.60;;;16.02;60.65;100443.69;12252109;19;19999;-84
2022/10/15 06:34:05;;;;;;;9.75;7.20;;;16.90;61.90;;;16.04;60.69;100433.84;12259377;19;20018;-84
2022/10/15 06:38:07;;;;;;;6.65;5.93;;;17.00;62.30;;;16.12;60.66;100448.06;12252960;19;20011;-84
2022/10/15 06:42:08;;;;;;;8.07;6.80;;;17.20;62.80;;;16.09;60.74;100442.22;12256722;19;20025;-85
2022/10/15 06:46:13;;;;;;;7.83;6.33;;;17.00;62.70;;;16.01;60.74;100421.75;12255549;19;20031;-83
2022/10/15 06:50:15;;;;;;;6.70;5.93;;;17.10;62.70;;;16.22;60.89;100452.56;12257183;19;20026;-85
2022/10/15 06:54:16;;;;;;;8.85;6.70;;;17.10;62.70;;;16.24;60.86;100451.47;12257439;19;20015;-85
2022/10/15 06:58:18;;;;;;;6.88;6.15;;;17.10;62.90;;;16.14;60.91;100440.84;12255515;19;20793;-84
2022/10/15 07:02:20;;;;;;;6.53;5.93;;;17.20;63.00;;;16.29;60.88;100453.75;12257242;19;20014;-85
2022/10/15 07:06:22;;;;;;;9.00;6.88;;;17.20;63.00;;;16.41;60.94;100475.59;12255726;19;20035;-86
2022/10/15 07:10:27;;;;;;;5.63;4.93;;;17.20;63.20;;;16.40;60.99;100471.28;12255680;19;20002;-85
2022/10/15 07:14:29;;;;;;;5.82;4.97;;;17.30;63.60;;;16.42;61.08;100474.59;12256415;19;20077;-86
2022/10/15 07:18:31;;;;;;;6.97;5.60;;;17.30;63.50;;;16.50;61.26;100494.13;12254857;19;20006;-85
2022/10/15 07:22:33;;;;;;;6.93;6.22;;;17.40;63.60;;;16.44;61.31;100472.69;12258560;19;20010;-83
2022/10/15 07:26:35;;;;;;;8.73;5.88;;;17.40;64.00;;;16.51;61.24;100489.66;12255115;19;20039;-83
2022/10/15 07:30:37;;;;;;;5.97;5.38;;;17.70;64.50;;;16.62;61.23;100504.59;12255710;19;20006;-83
2022/10/15 07:34:38;;;;;;;5.00;4.55;;;17.50;64.20;;;16.65;61.32;100499.06;12255814;19;20022;-84
2022/10/15 07:38:40;;;;;;;5.90;5.28;;;17.50;64.10;;;16.69;61.34;100493.41;12250814;19;20029;-84
2022/10/15 07:42:42;;;;;;;6.65;5.95;;;17.60;64.30;;;16.52;61.35;100451.78;12253639;19;20017;-84
2022/10/15 07:46:45;;;;;;;7.15;5.85;;;17.60;64.40;;;16.72;61.26;100482.59;12253502;19;20081;-84
2022/10/15 07:50:56;;;;;;;6.35;5.75;;;17.60;64.40;;;16.63;61.29;100459.63;12252342;19;20015;-83
2022/10/15 07:54:58;;;;;;;7.43;6.22;;;17.70;64.80;;;16.76;61.49;100469.97;12249581;19;20019;-83
2022/10/15 07:58:59;;;;;;;6.75;5.50;;;17.70;64.80;;;16.87;61.40;100480.47;12250626;19;20408;-84
2022/10/15 08:03:01;;;;;;;6.15;5.25;;;17.80;64.80;;;16.83;61.51;100463.25;12255511;19;20023;-83
2022/10/15 08:07:02;;;;;;;5.20;4.50;;;17.80;64.80;;;17.01;61.35;100492.47;12263282;19;20011;-83
2022/10/15 08:11:11;;;;;;;5.53;4.97;;;17.90;64.60;;;17.04;61.67;100484.31;12256723;19;20032;-83
2022/10/15 08:15:13;;;;;;;4.57;4.03;;;17.90;64.70;;;16.96;61.65;100466.50;12255464;19;20023;-83
2022/10/15 08:19:16;;;;;;;5.60;4.88;;;18.00;64.80;;;17.15;61.72;100488.66;12248605;19;20015;-83
2022/10/15 08:23:17;;;;;;;5.55;4.97;;;18.00;64.90;;;16.89;61.75;100446.88;12253543;19;20022;-84
2022/10/15 08:27:19;;;;;;;10.07;5.18;;;18.20;64.80;;;17.19;61.51;100490.88;12250729;19;20019;-84
2022/10/15 08:31:21;;;;;;;8.50;7.05;;;18.20;65.00;;;17.19;61.76;100480.31;12253553;19;20042;-85
2022/10/15 08:35:23;;;;;;;10.20;7.68;;;18.20;65.00;;;17.32;61.84;100489.81;12253776;19;20015;-84
2022/10/15 08:39:24;;;;;;;6.70;6.00;;;18.30;65.60;;;17.43;62.02;100503.75;12249006;19;20053;-83
2022/10/15 08:43:41;;;;;;;8.90;5.03;;;18.40;66.30;;;17.38;61.84;100476.06;12254609;19;20019;-84
2022/10/15 08:47:59;;;;;;;5.25;4.50;;;18.50;66.30;;;17.64;61.97;100498.38;12251444;19;20022;-84
2022/10/15 08:52:21;;;;;;;8.18;5.50;;;18.60;66.50;;;17.77;62.07;100502.56;12251805;19;20078;-83
2022/10/15 08:56:44;;;;;;;5.72;4.47;;;18.80;67.00;;;17.86;62.06;100488.56;12249716;19;20018;-84
2022/10/15 09:01:32;;;;;;;6.43;5.03;;;18.90;66.90;;;18.13;62.35;100507.22;12253339;19;20039;-83
2022/10/15 09:05:45;;;;;;;8.07;4.95;;;19.10;65.90;;;18.25;62.07;100505.25;12248393;19;20070;-84
2022/10/15 09:10:11;;;;;;;5.38;4.72;;;19.30;65.60;;;18.44;62.18;100507.06;12246151;19;20013;-83
2022/10/15 09:14:21;;;;;;;4.87;3.97;;;19.40;65.60;;;18.51;62.35;100505.53;12250238;19;20024;-85
2022/10/15 09:18:29;;;;;;;4.97;3.78;;;19.60;65.60;;;18.70;62.27;100517.06;12243623;19;20035;-84
2022/10/15 09:22:34;;;;;;;4.03;3.65;;;19.80;65.20;;;18.84;61.95;100537.78;12249113;19;20010;-83
2022/10/15 09:27:20;;;;;;;4.38;3.95;;;19.80;65.00;;;18.84;62.08;100529.84;12250365;19;20022;-84
2022/10/15 09:31:32;;;;;;;3.97;3.58;;;20.10;64.40;;;18.91;61.91;100523.03;12245152;19;20021;-84
2022/10/15 09:36:05;;;;;;;3.78;2.80;;;20.00;63.90;;;18.95;62.22;100518.25;12250731;19;20014;-83
2022/10/15 09:40:54;;;;;;;3.30;3.00;;;20.10;63.70;;;19.02;62.02;100519.38;12242654;19;20358;-85
2022/10/15 09:45:09;;;;;;;2.83;2.55;;;20.10;63.60;;;19.13;61.94;100523.66;12249581;19;20014;-86
2022/10/15 09:49:26;;;;;;;6.63;4.20;;;20.20;63.60;;;19.18;62.15;100522.22;12245476;19;20484;-85
2022/10/15 09:53:44;;;;;;;4.63;3.45;;;20.20;63.30;;;19.24;61.67;100523.47;12251985;19;20024;-86
2022/10/15 09:57:51;;;;;;;3.92;3.38;;;20.30;63.30;;;19.26;61.74;100526.81;12245839;19;20406;-83
2022/10/15 10:02:02;;;;;;;3.22;2.92;;;20.40;62.70;;;19.35;61.56;100533.84;12250067;19;20019;-85
2022/10/15 10:06:12;;;;;;;2.90;2.70;;;20.40;62.20;;;19.39;61.81;100535.25;12258211;19;20342;-85
2022/10/15 10:10:27;;;;;;;5.75;4.65;;;20.40;62.10;;;19.40;61.86;100536.06;12259038;19;20106;-84
2022/10/15 10:14:38;;;;;;;3.25;2.90;;;20.50;62.20;;;19.39;61.96;100521.19;12264661;19;20089;-85
2022/10/15 10:18:49;;;;;;;2.60;2.40;;;20.40;62.30;;;19.42;61.51;100528.81;12256455;19;20011;-83
2022/10/15 10:22:56;;;;;;;2.97;2.70;;;20.50;62.30;;;19.50;61.57;100541.34;12261143;19;20014;-84
2022/10/15 10:27:01;;;;;;;2.75;2.55;;;20.60;61.70;;;19.44;61.82;100530.34;12258443;19;20417;-85
2022/10/15 10:31:07;;;;;;;6.07;2.70;;;20.60;61.60;;;19.41;61.57;100525.31;12260214;19;20035;-85
2022/10/15 10:35:21;;;;;;;2.97;2.78;;;20.60;61.60;;;19.37;61.42;100509.88;12260026;19;20018;-86
2022/10/15 10:39:35;;;;;;;2.58;2.38;;;20.60;61.20;;;19.64;61.62;100543.47;12255871;19;20015;-84
2022/10/15 10:43:40;;;;;;;2.08;1.98;;;20.60;61.10;;;19.67;61.31;100546.69;12262166;19;20018;-85
2022/10/15 10:47:41;;;;;;;2.60;2.30;;;20.70;61.30;;;19.49;61.05;100497.28;12260167;19;20039;-85
2022/10/15 10:51:49;;;;;;;2.25;2.08;;;20.70;61.70;;;19.76;61.27;100546.78;12259690;19;20479;-84
2022/10/15 10:55:55;;;;;;;3.00;2.80;;;20.70;61.70;;;19.79;61.11;100551.78;12253979;19;20010;-84
2022/10/15 11:00:02;;;;;;;2.58;2.15;;;20.90;61.20;;;19.81;61.36;100548.00;12254204;19;20018;-84
2022/10/15 11:04:26;;;;;;;2.70;2.50;;;21.00;61.30;;;19.81;61.24;100555.94;12260681;19;20456;-84
2022/10/15 11:08:27;;;;;;;2.22;2.13;;;20.70;61.20;;;19.84;61.17;100550.34;12257832;19;20015;-84
2022/10/15 11:13:02;;;;;;;3.20;2.90;;;20.80;61.10;;;19.82;61.23;100555.00;12262657;19;20018;-84
2022/10/15 11:17:16;;;;;;;2.55;2.35;;;20.80;60.50;;;19.82;61.09;100549.69;12259769;19;20006;-85
2022/10/15 11:21:48;;;;;;;3.00;2.80;;;20.80;60.70;;;19.83;60.86;100551.34;12257964;19;20307;-84
2022/10/15 11:25:57;;;;;;;3.50;1.85;;;20.70;60.70;;;19.85;61.35;100546.75;12260875;19;20519;-85
2022/10/15 11:30:35;;;;;;;1.83;1.73;;;20.70;61.10;;;19.86;61.16;100550.22;12255145;19;20014;-85
2022/10/15 11:35:23;;;;;;;1.85;1.75;;;20.80;61.10;;;19.91;61.29;100552.44;12258763;19;20037;-86
2022/10/15 11:40:18;;;;;;;1.73;1.63;;;20.80;61.00;;;19.90;61.07;100540.97;12255371;19;20018;-84
2022/10/15 11:44:43;;;;;;;1.95;1.70;;;20.80;61.00;;;20.01;61.19;100553.16;12253604;19;20035;-85
2022/10/15 11:48:50;;;;;;;1.98;1.88;;;20.90;60.90;;;20.03;60.84;100548.56;12256470;19;20136;-84
2022/10/15 11:53:37;;;;;;;2.22;2.03;;;20.90;60.90;;;20.06;60.99;100545.59;12256648;19;20416;-85
2022/10/15 11:57:43;;;;;;;2.25;2.05;;;21.00;61.20;;;20.06;60.64;100535.00;12253047;19;20481;-84
2022/10/15 12:01:51;;;;;;;2.00;1.88;;;21.00;61.10;;;19.92;60.84;100501.91;12254448;19;20346;-85
2022/10/15 12:06:05;;;;;;;2.50;2.30;;;21.00;60.90;;;19.99;60.74;100508.28;12255338;19;20025;-84
2022/10/15 12:10:26;;;;;;;2.20;2.10;;;21.00;60.50;;;20.13;61.02;100522.81;12257479;19;20007;-84
2022/10/15 12:14:50;;;;;;;1.98;1.88;;;21.10;61.40;;;20.15;61.07;100526.16;12256602;19;20011;-84
2022/10/15 12:19:17;;;;;;;2.60;2.38;;;21.00;60.50;;;20.13;61.04;100530.78;12263836;19;20018;-85
2022/10/15 12:23:35;;;;;;;2.25;2.05;;;21.10;60.40;;;20.26;61.01;100525.91;12258573;19;20037;-85
2022/10/15 12:27:38;;;;;;;2.05;1.85;;;21.10;60.60;;;20.26;60.65;100515.31;12253680;19;20014;-85
2022/10/15 12:31:52;;;;;;;2.00;1.83;;;21.20;61.20;;;20.34;60.71;100518.03;12252052;19;20014;-85
2022/10/15 12:36:20;;;;;;;1.90;1.80;;;21.20;60.50;;;20.34;60.85;100514.56;12252029;19;20031;-84
2022/10/15 12:40:21;;;;;;;1.90;1.80;;;21.30;60.00;;;20.47;60.61;100530.91;12251079;19;20026;-85
2022/10/15 12:44:34;;;;;;;1.67;1.58;;;21.30;59.70;;;20.37;60.60;100526.69;12256178;19;20121;-85
2022/10/15 12:48:43;;;;;;;2.20;1.95;;;21.30;59.70;;;20.41;60.35;100533.31;12251074;19;20452;-85
2022/10/15 12:53:25;;;;;;;2.40;1.70;;;21.40;59.90;;;20.46;60.82;100539.00;12257211;19;20031;-84
2022/10/15 12:57:30;;;;;;;1.83;1.73;;;21.40;60.00;;;20.53;60.44;100546.22;12258287;19;20073;-85
2022/10/15 13:01:41;;;;;;;1.73;1.47;;;21.40;59.90;;;20.55;60.66;100531.00;12258021;19;20018;-85
2022/10/15 13:05:43;;;;;;;1.67;1.58;;;21.40;60.10;;;20.57;60.88;100533.47;12257606;19;20010;-85
2022/10/15 13:09:44;;;;;;;1.58;1.48;;;21.40;60.00;;;20.55;60.43;100525.69;12250615;19;20014;-85
2022/10/15 13:13:52;;;;;;;1.85;1.75;;;21.50;59.80;;;20.55;60.03;100519.56;12251341;19;20066;-83
2022/10/15 13:18:12;;;;;;;2.45;2.13;;;21.70;59.70;;;20.60;60.61;100533.16;12249554;19;20081;-85
2022/10/15 13:22:29;;;;;;;3.17;2.88;;;21.50;59.70;;;20.56;60.31;100515.91;12249152;19;20021;-85
2022/10/15 13:26:31;;;;;;;2.55;2.35;;;21.50;59.80;;;20.57;60.51;100517.56;12247397;19;20035;-84
2022/10/15 13:30:32;;;;;;;3.40;2.80;;;21.50;59.60;;;20.67;60.58;100533.41;12249413;19;20420;-84
2022/10/15 13:34:35;;;;;;;2.92;2.38;;;21.60;59.50;;;20.54;60.04;100512.56;12248279;19;20010;-85
2022/10/15 13:38:38;;;;;;;2.10;2.00;;;21.50;59.60;;;20.61;60.24;100523.41;12241284;19;20015;-84
2022/10/15 13:43:07;;;;;;;1.58;1.48;;;21.50;59.30;;;20.58;60.11;100518.38;12249592;19;20020;-84
2022/10/15 13:47:31;;;;;;;1.48;1.30;;;21.50;59.10;;;20.62;59.95;100525.91;12245109;19;20081;-84
2022/10/15 13:51:40;;;;;;;1.00;1.00;;;21.50;59.20;;;20.62;60.17;100520.59;12247871;19;20035;-84
2022/10/15 13:55:49;;;;;;;1.23;1.15;;;21.50;59.20;;;20.63;60.25;100522.28;12248310;19;20421;-85
2022/10/15 13:59:52;;;;;;;1.42;1.33;;;21.60;59.40;;;20.55;59.66;100512.44;12241451;19;20038;-85
2022/10/15 14:03:58;;;;;;;2.45;2.20;;;21.50;59.10;;;20.63;60.14;100527.59;12246986;19;20048;-84
2022/10/15 14:08:00;;;;;;;1.48;1.38;;;21.50;59.40;;;20.60;60.07;100514.59;12241541;19;20014;-85
2022/10/15 14:12:06;;;;;;;1.70;1.60;;;21.50;59.40;;;20.50;60.01;100500.59;12248474;19;20018;-84
2022/10/15 14:16:23;;;;;;;1.77;1.58;;;21.40;59.30;;;20.49;60.22;100506.88;12246246;19;20021;-84
2022/10/15 14:20:25;;;;;;;1.92;1.65;;;21.40;59.20;;;20.62;59.64;100525.06;12245166;19;20010;-85
2022/10/15 14:24:34;;;;;;;1.65;1.55;;;21.50;59.10;;;20.57;59.66;100528.19;12254296;19;20553;-84
2022/10/15 14:28:37;;;;;;;2.28;2.03;;;21.40;59.30;;;20.54;59.99;100517.88;12243074;19;20017;-85
2022/10/15 14:32:51;;;;;;;1.95;1.75;;;21.60;59.30;;;20.60;60.17;100521.72;12246509;19;20390;-85
2022/10/15 14:36:52;;;;;;;1.75;1.65;;;21.40;59.30;;;20.62;59.90;100519.75;12245714;19;20018;-84
2022/10/15 14:41:17;;;;;;;2.10;2.00;;;21.50;59.70;;;20.50;60.10;100505.91;12247410;19;20046;-84
2022/10/15 14:45:25;;;;;;;2.70;2.20;;;21.40;59.30;;;20.53;60.06;100514.41;12249262;19;20380;-83
2022/10/15 14:49:32;;;;;;;2.63;2.08;;;21.40;59.30;;;20.50;59.89;100517.34;12248615;19;20014;-84
2022/10/15 14:53:42;;;;;;;3.78;2.08;;;21.40;59.30;;;20.46;59.90;100515.97;12261428;19;20027;-84
2022/10/15 14:57:47;;;;;;;2.00;1.90;;;21.50;59.40;;;20.50;59.85;100525.28;12258713;19;20017;-84
2022/10/15 15:02:00;;;;;;;1.90;1.80;;;21.30;59.30;;;20.55;60.00;100538.13;12255218;19;20002;-84
2022/10/15 15:06:02;;;;;;;2.17;1.98;;;21.30;59.40;;;20.57;60.06;100541.44;12259371;19;20357;-84
2022/10/15 15:10:06;;;;;;;2.13;1.98;;;21.30;59.50;;;20.54;59.47;100541.75;12254651;19;20011;-84
2022/10/15 15:14:26;;;;;;;2.30;2.10;;;21.30;59.40;;;20.34;59.67;100518.03;12258852;19;20022;-84
2022/10/15 15:18:28;;;;;;;2.42;2.22;;;21.30;59.50;;;20.31;59.95;100510.38;12253141;19;20014;-84
2022/10/15 15:22:32;;;;;;;1.90;1.80;;;21.20;59.40;;;20.31;59.47;100517.50;12256125;19;20086;-84
2022/10/15 15:26:33;;;;;;;2.33;2.13;;;21.30;59.50;;;20.46;59.66;100546.97;12252209;19;20082;-84
2022/10/15 15:30:38;;;;;;;3.70;2.50;;;21.20;59.50;;;20.49;59.77;100549.31;12255770;19;20014;-84
2022/10/15 15:34:40;;;;;;;2.47;2.13;;;21.30;59.50;;;20.20;59.62;100502.66;12257413;19;20010;-84
2022/10/15 15:38:42;;;;;;;5.55;3.65;;;21.40;59.50;;;20.14;59.59;100510.38;12252811;19;20365;-84
2022/10/15 15:42:45;;;;;;;3.30;2.67;;;21.30;59.50;;;20.38;59.85;100557.50;12253632;19;20019;-84
2022/10/15 15:46:50;;;;;;;5.60;4.30;;;21.10;59.40;;;20.23;59.60;100534.19;12254598;19;20029;-85
2022/10/15 15:50:52;;;;;;;3.88;3.15;;;21.30;59.50;;;20.26;59.38;100549.78;12256927;19;20010;-84
2022/10/15 15:54:53;;;;;;;3.05;2.17;;;21.00;59.30;;;20.23;59.35;100555.41;12258736;19;20024;-84
2022/10/15 15:58:55;;;;;;;2.17;1.98;;;21.00;59.30;;;20.18;59.33;100562.97;12253594;19;20035;-85
2022/10/15 16:02:56;;;;;;;2.08;1.95;;;20.90;59.20;;;20.11;59.39;100559.25;12258706;19;20042;-84
2022/10/15 16:06:58;;;;;;;1.92;1.75;;;21.00;59.10;;;19.97;59.24;100543.88;12256094;19;20027;-84
2022/10/15 16:11:05;;;;;;;2.67;1.90;;;20.80;59.00;;;19.93;59.18;100572.50;12255982;19;20055;-84
2022/10/15 16:15:07;;;;;;;2.15;2.03;;;20.70;59.00;;;19.84;59.52;100574.19;12255534;19;20003;-84
2022/10/15 16:19:09;;;;;;;1.83;1.73;;;20.60;59.20;;;19.69;59.32;100554.50;12250999;19;20019;-84
2022/10/15 16:23:11;;;;;;;1.98;1.83;;;20.50;59.00;;;19.54;59.38;100555.94;12256710;19;20021;-84
2022/10/15 16:27:12;;;;;;;1.55;1.45;;;20.40;58.90;;;19.53;59.28;100571.00;12253792;19;20011;-84
2022/10/15 16:31:22;;;;;;;1.50;1.40;;;20.20;58.90;;;19.47;59.23;100576.91;12258794;19;20047;-84
2022/10/15 16:35:23;;;;;;;2.08;1.73;;;20.20;58.80;;;19.28;59.30;100561.91;12265205;19;20022;-85
2022/10/15 16:39:25;;;;;;;3.05;1.98;;;20.10;59.00;;;19.10;59.29;100550.41;12254283;19;20029;-85
2022/10/15 16:43:26;;;;;;;2.10;1.83;;;20.00;58.90;;;19.22;59.30;100573.88;12259087;19;20518;-85
2022/10/15 16:47:28;;;;;;;2.08;1.95;;;19.90;58.90;;;18.96;59.48;100541.13;12254049;19;20022;-85
2022/10/15 16:51:30;;;;;;;2.42;2.22;;;19.80;58.90;;;19.12;59.45;100586.34;12258774;19;20126;-85
2022/10/15 16:55:32;;;;;;;1.80;1.70;;;20.00;58.90;;;18.97;59.30;100591.25;12259439;19;20010;-85
2022/10/15 16:59:33;;;;;;;2.13;1.92;;;19.80;58.90;;;18.90;59.05;100595.44;12253555;19;20011;-85
2022/10/15 17:03:37;;;;;;;1.98;1.88;;;19.60;58.80;;;18.67;59.10;100571.06;12255383;19;20023;-85